createdAt,value
2022-08-03T00:00:01.985Z,0.00
2022-08-03T00:01:01.945Z,0.00
2022-08-03T00:02:01.936Z,0.00
2022-08-03T00:03:01.974Z,0.00
2022-08-03T00:04:01.917Z,0.00
2022-08-03T00:05:01.908Z,0.00
2022-08-03T00:06:03.696Z,0.00
2022-08-03T00:07:01.888Z,0.00
2022-08-03T00:08:01.875Z,0.00
2022-08-03T00:09:01.866Z,0.00
2022-08-03T00:10:01.849Z,0.00
2022-08-03T00:11:01.852Z,0.00
2022-08-03T00:12:01.847Z,0.00
2022-08-03T00:13:01.826Z,0.00
2022-08-03T00:14:01.810Z,0.00
2022-08-03T00:15:01.798Z,0.00
2022-08-03T00:16:01.789Z,0.00
2022-08-03T00:17:01.830Z,0.00
2022-08-03T00:18:01.768Z,0.00
2022-08-03T00:19:02.220Z,0.00
2022-08-03T00:20:01.746Z,0.00
2022-08-03T00:21:01.728Z,0.00
2022-08-03T00:22:01.727Z,0.00
2022-08-03T00:23:01.749Z,0.00
2022-08-03T00:24:01.701Z,0.00
2022-08-03T00:25:01.693Z,0.00
2022-08-03T00:26:01.681Z,0.00
2022-08-03T00:27:01.668Z,0.00
2022-08-03T00:28:01.658Z,0.00
2022-08-03T00:29:01.669Z,0.00
2022-08-03T00:30:01.640Z,0.00
2022-08-03T00:31:01.629Z,0.00
2022-08-03T00:32:01.609Z,0.00
2022-08-03T00:33:01.608Z,0.00
2022-08-03T00:34:03.565Z,0.00
2022-08-03T00:35:07.857Z,0.00
2022-08-03T00:36:02.568Z,0.00
2022-08-03T00:37:01.570Z,0.00
2022-08-03T00:38:01.571Z,0.00
2022-08-03T00:39:01.541Z,0.00
2022-08-03T00:40:01.563Z,0.00
2022-08-03T00:41:01.518Z,0.00
2022-08-03T00:42:01.501Z,0.00
2022-08-03T00:43:01.498Z,0.00
2022-08-03T00:44:01.486Z,0.00
2022-08-03T00:45:01.470Z,0.00
2022-08-03T00:46:01.481Z,0.00
2022-08-03T00:47:01.451Z,0.00
2022-08-03T00:48:01.444Z,0.00
2022-08-03T00:49:01.522Z,0.00
2022-08-03T00:50:01.420Z,0.00
2022-08-03T00:51:01.433Z,0.00
2022-08-03T00:52:01.400Z,0.00
2022-08-03T00:53:02.390Z,0.00
2022-08-03T00:54:01.381Z,0.00
2022-08-03T00:55:01.365Z,0.00
2022-08-03T00:56:01.353Z,0.00
2022-08-03T00:57:01.373Z,0.00
2022-08-03T00:58:01.333Z,0.00
2022-08-03T00:59:01.329Z,0.00
2022-08-03T01:00:01.323Z,0.00
2022-08-03T01:01:01.366Z,0.00
2022-08-03T01:02:01.292Z,0.00
2022-08-03T01:03:01.293Z,0.00
2022-08-03T01:04:01.276Z,0.00
2022-08-03T01:05:01.263Z,0.00
2022-08-03T01:06:01.247Z,0.00
2022-08-03T01:07:01.233Z,0.00
2022-08-03T01:08:01.244Z,0.00
2022-08-03T01:09:01.213Z,0.00
2022-08-03T01:10:01.204Z,0.00
2022-08-03T01:11:01.192Z,0.00
2022-08-03T01:12:01.815Z,0.00
2022-08-03T01:13:01.302Z,0.00
2022-08-03T01:14:17.966Z,0.00
2022-08-03T01:15:02.144Z,0.00
2022-08-03T01:16:01.137Z,0.00
2022-08-03T01:17:01.126Z,0.00
2022-08-03T01:18:01.114Z,0.00
2022-08-03T01:19:01.102Z,0.00
2022-08-03T01:20:01.872Z,0.00
2022-08-03T01:21:01.087Z,0.00
2022-08-03T01:22:01.065Z,0.00
2022-08-03T01:23:01.064Z,0.00
2022-08-03T01:24:01.036Z,0.00
2022-08-03T01:25:01.035Z,0.00
2022-08-03T01:26:01.045Z,0.00
2022-08-03T01:27:01.005Z,0.00
2022-08-03T01:28:00.996Z,0.00
2022-08-03T01:29:00.989Z,0.00
2022-08-03T01:30:00.975Z,0.00
2022-08-03T01:31:00.964Z,0.00
2022-08-03T01:32:53.269Z,0.00
2022-08-03T01:33:02.169Z,0.00
2022-08-03T01:34:01.024Z,0.00
2022-08-03T01:35:00.929Z,0.00
2022-08-03T01:36:00.905Z,0.00
2022-08-03T01:37:00.900Z,0.00
2022-08-03T01:38:00.905Z,0.00
2022-08-03T01:39:00.876Z,0.00
2022-08-03T01:40:00.857Z,0.00
2022-08-03T01:41:00.877Z,0.00
2022-08-03T01:42:00.837Z,0.00
2022-08-03T01:43:00.826Z,0.00
2022-08-03T01:44:29.220Z,0.00
2022-08-03T01:45:01.808Z,0.00
2022-08-03T01:46:00.796Z,0.00
2022-08-03T01:47:00.785Z,0.00
2022-08-03T01:48:00.767Z,0.00
2022-08-03T01:49:00.976Z,0.00
2022-08-03T01:50:01.766Z,0.00
2022-08-03T01:51:00.739Z,0.00
2022-08-03T01:52:05.011Z,0.00
2022-08-03T01:53:00.716Z,0.00
2022-08-03T01:54:00.697Z,0.00
2022-08-03T01:55:00.697Z,0.00
2022-08-03T01:56:00.697Z,0.00
2022-08-03T01:57:00.677Z,0.00
2022-08-03T01:58:04.588Z,0.00
2022-08-03T01:59:01.648Z,0.00
2022-08-03T02:00:00.627Z,0.00
2022-08-03T02:01:00.746Z,0.00
2022-08-03T02:02:15.399Z,0.00
2022-08-03T02:03:01.626Z,0.00
2022-08-03T02:04:01.267Z,0.00
2022-08-03T02:05:00.578Z,0.00
2022-08-03T02:06:11.734Z,0.00
2022-08-03T02:07:03.318Z,0.00
2022-08-03T02:08:00.539Z,0.00
2022-08-03T02:09:00.529Z,0.00
2022-08-03T02:10:00.520Z,0.00
2022-08-03T02:11:00.510Z,0.00
2022-08-03T02:12:00.526Z,0.00
2022-08-03T02:13:00.508Z,0.00
2022-08-03T02:14:00.469Z,0.00
2022-08-03T02:15:00.945Z,0.00
2022-08-03T02:16:00.449Z,0.00
2022-08-03T02:17:00.439Z,0.00
2022-08-03T02:18:00.446Z,0.00
2022-08-03T02:19:00.417Z,0.00
2022-08-03T02:20:00.400Z,0.00
2022-08-03T02:21:00.398Z,0.00
2022-08-03T02:22:01.277Z,0.00
2022-08-03T02:23:00.374Z,0.00
2022-08-03T02:24:00.369Z,0.00
2022-08-03T02:25:00.380Z,0.00
2022-08-03T02:26:00.330Z,0.00
2022-08-03T02:27:00.327Z,0.00
2022-08-03T02:28:00.314Z,0.00
2022-08-03T02:29:00.330Z,0.00
2022-08-03T02:30:00.291Z,0.00
2022-08-03T02:31:01.019Z,0.00
2022-08-03T02:32:00.261Z,0.00
2022-08-03T02:33:00.354Z,0.00
2022-08-03T02:34:00.255Z,0.00
2022-08-03T02:35:00.250Z,0.00
2022-08-03T02:36:00.303Z,0.00
2022-08-03T02:37:00.218Z,0.00
2022-08-03T02:38:00.199Z,0.00
2022-08-03T02:39:00.200Z,0.00
2022-08-03T02:40:00.191Z,0.00
2022-08-03T02:41:00.179Z,0.00
2022-08-03T02:42:00.175Z,0.00
2022-08-03T02:43:00.150Z,0.00
2022-08-03T02:44:06.472Z,0.00
2022-08-03T02:45:01.172Z,0.00
2022-08-03T02:46:00.111Z,0.00
2022-08-03T02:47:00.214Z,0.00
2022-08-03T02:48:00.083Z,0.00
2022-08-03T02:49:00.114Z,0.00
2022-08-03T02:50:01.095Z,0.00
2022-08-03T02:51:00.282Z,0.00
2022-08-03T02:52:00.043Z,0.00
2022-08-03T02:53:00.032Z,0.00
2022-08-03T02:54:00.020Z,0.00
2022-08-03T02:55:00.006Z,0.00
2022-08-03T02:55:59.999Z,0.00
2022-08-03T02:57:00.012Z,0.00
2022-08-03T02:58:01.422Z,0.00
2022-08-03T02:58:59.962Z,0.00
2022-08-03T02:59:59.952Z,0.00
2022-08-03T03:00:59.971Z,0.00
2022-08-03T03:01:59.943Z,0.00
2022-08-03T03:03:00.316Z,0.00
2022-08-03T03:03:59.909Z,0.00
2022-08-03T03:05:54.984Z,0.00
2022-08-03T03:06:00.943Z,0.00
2022-08-03T03:06:59.873Z,0.00
2022-08-03T03:07:59.873Z,0.00
2022-08-03T03:09:00.047Z,0.00
2022-08-03T03:09:59.836Z,0.00
2022-08-03T03:10:59.823Z,0.00
2022-08-03T03:11:59.811Z,0.00
2022-08-03T03:12:59.833Z,0.00
2022-08-03T03:13:59.836Z,0.00
2022-08-03T03:14:59.783Z,0.00
2022-08-03T03:15:59.774Z,0.00
2022-08-03T03:16:59.753Z,0.00
2022-08-03T03:17:59.743Z,0.00
2022-08-03T03:18:59.754Z,0.00
2022-08-03T03:19:59.725Z,0.00
2022-08-03T03:20:59.713Z,0.00
2022-08-03T03:21:59.695Z,0.00
2022-08-03T03:22:59.698Z,0.00
2022-08-03T03:23:59.742Z,0.00
2022-08-03T03:25:00.424Z,0.00
2022-08-03T03:25:59.655Z,0.00
2022-08-03T03:26:59.644Z,0.00
2022-08-03T03:27:59.633Z,0.00
2022-08-03T03:28:59.625Z,0.00
2022-08-03T03:29:59.604Z,0.00
2022-08-03T03:30:59.615Z,0.00
2022-08-03T03:31:59.585Z,0.00
2022-08-03T03:32:59.580Z,0.00
2022-08-03T03:33:59.565Z,0.00
2022-08-03T03:34:59.553Z,0.00
2022-08-03T03:35:59.567Z,0.00
2022-08-03T03:36:59.527Z,0.00
2022-08-03T03:37:59.514Z,0.00
2022-08-03T03:38:59.518Z,0.00
2022-08-03T03:40:00.495Z,0.00
2022-08-03T03:40:59.487Z,0.00
2022-08-03T03:41:59.486Z,0.00
2022-08-03T03:42:59.465Z,5.62
2022-08-03T03:44:06.491Z,5.62
2022-08-03T03:44:59.483Z,5.62
2022-08-03T03:45:59.422Z,5.62
2022-08-03T03:46:59.422Z,5.62
2022-08-03T03:47:59.432Z,5.62
2022-08-03T03:48:59.422Z,5.62
2022-08-03T03:49:59.422Z,11.25
2022-08-03T03:50:59.372Z,11.25
2022-08-03T03:51:59.361Z,11.25
2022-08-03T03:52:59.353Z,11.25
2022-08-03T03:53:59.353Z,11.25
2022-08-03T03:55:01.214Z,16.88
2022-08-03T03:56:02.411Z,16.88
2022-08-03T03:56:59.302Z,16.88
2022-08-03T03:57:59.290Z,16.88
2022-08-03T03:58:59.324Z,22.50
2022-08-03T03:59:59.263Z,22.50
2022-08-03T04:00:59.311Z,22.50
2022-08-03T04:01:59.457Z,22.50
2022-08-03T04:02:59.233Z,28.12
2022-08-03T04:03:59.223Z,28.12
2022-08-03T04:04:59.243Z,33.75
2022-08-03T04:05:59.203Z,33.75
2022-08-03T04:06:59.192Z,33.75
2022-08-03T04:07:59.174Z,39.38
2022-08-03T04:08:59.162Z,39.38
2022-08-03T04:09:59.260Z,39.38
2022-08-03T04:11:00.165Z,45.00
2022-08-03T04:11:59.137Z,45.00
2022-08-03T04:12:59.124Z,50.62
2022-08-03T04:14:02.059Z,50.62
2022-08-03T04:14:59.103Z,50.62
2022-08-03T04:15:59.091Z,56.25
2022-08-03T04:16:59.108Z,56.25
2022-08-03T04:17:59.074Z,61.88
2022-08-03T04:18:59.521Z,61.88
2022-08-03T04:19:59.054Z,61.88
2022-08-03T04:20:59.036Z,67.50
2022-08-03T04:21:59.023Z,67.50
2022-08-03T04:22:59.026Z,73.12
2022-08-03T04:23:59.003Z,73.12
2022-08-03T04:24:58.984Z,73.12
2022-08-03T04:25:58.984Z,78.75
2022-08-03T04:26:58.965Z,78.75
2022-08-03T04:28:28.294Z,78.75
2022-08-03T04:28:59.944Z,84.38
2022-08-03T04:29:58.934Z,84.38
2022-08-03T04:30:58.928Z,90.00
2022-08-03T04:31:58.905Z,90.00
2022-08-03T04:32:58.894Z,90.00
2022-08-03T04:33:58.907Z,95.62
2022-08-03T04:34:58.875Z,95.62
2022-08-03T04:36:02.557Z,101.25
2022-08-03T04:36:58.846Z,101.25
2022-08-03T04:37:58.836Z,101.25
2022-08-03T04:38:58.833Z,106.88
2022-08-03T04:39:58.837Z,106.88
2022-08-03T04:40:58.809Z,112.50
2022-08-03T04:42:07.284Z,112.50
2022-08-03T04:42:59.787Z,112.50
2022-08-03T04:43:58.778Z,118.12
2022-08-03T04:45:01.338Z,118.12
2022-08-03T04:45:58.776Z,123.75
2022-08-03T04:46:58.739Z,123.75
2022-08-03T04:47:58.728Z,123.75
2022-08-03T04:48:58.741Z,129.38
2022-08-03T04:49:58.707Z,129.38
2022-08-03T04:50:58.696Z,129.38
2022-08-03T04:51:58.698Z,135.00
2022-08-03T04:52:58.676Z,135.00
2022-08-03T04:53:58.666Z,135.00
2022-08-03T04:54:58.651Z,140.62
2022-08-03T04:55:59.277Z,140.62
2022-08-03T04:56:58.648Z,146.25
2022-08-03T04:57:59.459Z,146.25
2022-08-03T04:58:58.599Z,146.25
2022-08-03T05:00:03.004Z,146.25
2022-08-03T05:00:59.586Z,151.88
2022-08-03T05:01:58.777Z,151.88
2022-08-03T05:02:58.579Z,151.88
2022-08-03T05:03:58.548Z,157.50
2022-08-03T05:04:58.539Z,157.50
2022-08-03T05:06:01.694Z,163.12
2022-08-03T05:06:59.509Z,168.75
2022-08-03T05:08:00.753Z,168.75
2022-08-03T05:08:58.488Z,168.75
2022-08-03T05:10:02.943Z,174.38
2022-08-03T05:10:59.574Z,174.38
2022-08-03T05:11:58.458Z,174.38
2022-08-03T05:12:58.439Z,174.38
2022-08-03T05:13:58.451Z,174.38
2022-08-03T05:14:58.418Z,180.00
2022-08-03T05:15:58.410Z,185.62
2022-08-03T05:16:58.399Z,191.25
2022-08-03T05:17:58.390Z,191.25
2022-08-03T05:18:58.399Z,191.25
2022-08-03T05:19:58.423Z,196.88
2022-08-03T05:20:58.369Z,202.50
2022-08-03T05:21:58.339Z,208.12
2022-08-03T05:22:58.339Z,219.38
2022-08-03T05:23:58.330Z,230.62
2022-08-03T05:24:58.322Z,241.88
2022-08-03T05:25:58.301Z,241.88
2022-08-03T05:26:58.290Z,247.50
2022-08-03T05:27:58.279Z,253.12
2022-08-03T05:28:58.261Z,258.75
2022-08-03T05:30:30.907Z,264.38
2022-08-03T05:30:59.240Z,270.00
2022-08-03T05:31:58.231Z,275.62
2022-08-03T05:32:58.222Z,281.25
2022-08-03T05:33:58.209Z,286.88
2022-08-03T05:34:58.211Z,292.50
2022-08-03T05:36:03.538Z,298.12
2022-08-03T05:36:59.172Z,303.75
2022-08-03T05:37:58.163Z,315.00
2022-08-03T05:39:02.489Z,320.62
2022-08-03T05:39:58.154Z,320.62
2022-08-03T05:41:22.581Z,343.12
2022-08-03T05:41:59.152Z,337.50
2022-08-03T05:42:58.113Z,360.00
2022-08-03T05:43:58.109Z,371.25
2022-08-03T05:44:58.083Z,388.12
2022-08-03T05:46:11.437Z,354.38
2022-08-03T05:46:59.063Z,421.88
2022-08-03T05:47:58.082Z,438.75
2022-08-03T05:48:58.106Z,450.00
2022-08-03T05:49:58.034Z,466.88
2022-08-03T05:50:58.013Z,506.25
2022-08-03T05:52:00.493Z,495.00
2022-08-03T05:52:59.022Z,472.50
2022-08-03T05:53:57.986Z,596.25
2022-08-03T05:54:57.985Z,630.00
2022-08-03T05:56:02.349Z,545.62
2022-08-03T05:56:58.944Z,635.62
2022-08-03T05:57:57.934Z,680.62
2022-08-03T05:58:57.945Z,736.88
2022-08-03T05:59:58.618Z,798.75
2022-08-03T06:00:57.904Z,855.00
2022-08-03T06:01:57.941Z,888.75
2022-08-03T06:02:57.875Z,888.75
2022-08-03T06:03:57.875Z,945.00
2022-08-03T06:04:57.905Z,950.62
2022-08-03T06:06:00.395Z,1085.62
2022-08-03T06:06:57.848Z,1693.12
2022-08-03T06:07:57.827Z,2221.88
2022-08-03T06:08:57.816Z,1991.25
2022-08-03T06:10:36.387Z,1665.00
2022-08-03T06:10:58.808Z,1501.88
2022-08-03T06:11:57.800Z,1411.88
2022-08-03T06:12:57.770Z,1372.50
2022-08-03T06:13:57.767Z,1366.88
2022-08-03T06:14:57.762Z,1355.62
2022-08-03T06:15:57.768Z,1361.25
2022-08-03T06:16:57.729Z,1366.88
2022-08-03T06:18:01.516Z,1378.12
2022-08-03T06:18:57.713Z,1400.62
2022-08-03T06:19:57.712Z,1423.12
2022-08-03T06:20:57.691Z,1451.25
2022-08-03T06:21:58.699Z,1575.00
2022-08-03T06:23:00.308Z,1625.62
2022-08-03T06:23:57.650Z,1698.75
2022-08-03T06:24:57.640Z,1563.75
2022-08-03T06:25:57.630Z,1867.50
2022-08-03T06:26:57.621Z,1760.62
2022-08-03T06:27:57.631Z,1777.50
2022-08-03T06:28:57.606Z,1878.75
2022-08-03T06:29:57.596Z,1968.75
2022-08-03T06:30:57.581Z,1833.75
2022-08-03T06:31:57.570Z,2064.38
2022-08-03T06:32:57.573Z,2070.00
2022-08-03T06:34:33.480Z,2103.75
2022-08-03T06:34:58.535Z,2126.25
2022-08-03T06:35:57.533Z,2283.75
2022-08-03T06:37:01.790Z,2334.38
2022-08-03T06:37:57.514Z,2311.88
2022-08-03T06:38:57.512Z,2317.50
2022-08-03T06:39:57.486Z,2413.12
2022-08-03T06:40:57.474Z,2418.75
2022-08-03T06:41:57.463Z,2435.62
2022-08-03T06:42:57.462Z,2503.12
2022-08-03T06:44:03.829Z,2463.75
2022-08-03T06:44:58.427Z,2430.00
2022-08-03T06:45:57.426Z,2559.38
2022-08-03T06:46:57.406Z,2553.75
2022-08-03T06:47:57.397Z,2632.50
2022-08-03T06:48:57.472Z,2677.50
2022-08-03T06:50:17.020Z,2497.50
2022-08-03T06:50:58.366Z,2626.88
2022-08-03T06:52:04.631Z,2621.25
2022-08-03T06:52:58.349Z,2671.88
2022-08-03T06:53:57.338Z,2716.88
2022-08-03T06:54:57.327Z,2739.38
2022-08-03T06:55:57.339Z,2835.00
2022-08-03T06:56:57.300Z,2812.50
2022-08-03T06:57:59.942Z,2806.88
2022-08-03T06:58:58.301Z,2868.75
2022-08-03T07:00:06.231Z,2795.62
2022-08-03T07:00:58.344Z,2767.50
2022-08-03T07:01:57.251Z,2806.88
2022-08-03T07:02:58.514Z,2874.38
2022-08-03T07:03:57.232Z,2880.00
2022-08-03T07:04:57.239Z,2880.00
2022-08-03T07:05:57.214Z,2812.50
2022-08-03T07:06:57.221Z,2874.38
2022-08-03T07:07:57.193Z,2908.12
2022-08-03T07:08:59.551Z,2947.50
2022-08-03T07:09:58.185Z,2964.38
2022-08-03T07:10:57.161Z,3020.62
2022-08-03T07:11:57.181Z,2964.38
2022-08-03T07:12:57.150Z,2750.62
2022-08-03T07:13:57.135Z,2778.75
2022-08-03T07:15:00.653Z,2829.38
2022-08-03T07:15:57.125Z,2874.38
2022-08-03T07:16:57.095Z,2840.62
2022-08-03T07:17:57.117Z,2806.88
2022-08-03T07:18:57.080Z,2880.00
2022-08-03T07:19:57.102Z,2975.62
2022-08-03T07:20:57.069Z,3031.88
2022-08-03T07:22:02.073Z,2902.50
2022-08-03T07:22:58.057Z,2975.62
2022-08-03T07:23:57.029Z,3054.38
2022-08-03T07:24:57.018Z,2896.88
2022-08-03T07:25:57.010Z,2840.62
2022-08-03T07:26:56.991Z,3015.00
2022-08-03T07:27:56.989Z,3195.00
2022-08-03T07:28:57.005Z,3110.62
2022-08-03T07:29:56.969Z,3003.75
2022-08-03T07:30:56.958Z,3189.38
2022-08-03T07:31:56.950Z,3234.38
2022-08-03T07:32:56.940Z,3251.25
2022-08-03T07:33:56.951Z,3166.88
2022-08-03T07:35:00.625Z,3211.88
2022-08-03T07:35:56.910Z,3245.62
2022-08-03T07:36:56.892Z,3144.38
2022-08-03T07:37:56.890Z,3200.62
2022-08-03T07:38:56.882Z,3335.62
2022-08-03T07:39:57.285Z,3279.38
2022-08-03T07:40:56.855Z,3211.88
2022-08-03T07:41:56.852Z,3279.38
2022-08-03T07:42:56.834Z,3420.00
2022-08-03T07:43:56.834Z,3487.50
2022-08-03T07:44:56.815Z,3363.75
2022-08-03T07:45:56.834Z,3318.75
2022-08-03T07:46:56.807Z,3307.50
2022-08-03T07:47:56.784Z,3301.88
2022-08-03T07:48:56.838Z,3408.75
2022-08-03T07:49:56.773Z,3341.25
2022-08-03T07:50:56.760Z,3060.00
2022-08-03T07:51:56.777Z,3031.88
2022-08-03T07:52:56.739Z,3245.62
2022-08-03T07:53:56.736Z,3425.62
2022-08-03T07:54:56.728Z,3386.25
2022-08-03T07:55:56.716Z,3375.00
2022-08-03T07:56:56.698Z,3228.75
2022-08-03T07:57:56.827Z,3178.12
2022-08-03T07:58:56.678Z,3262.50
2022-08-03T08:00:02.162Z,3273.75
2022-08-03T08:00:57.728Z,3234.38
2022-08-03T08:01:56.667Z,3335.62
2022-08-03T08:02:56.647Z,3240.00
2022-08-03T08:03:56.651Z,3262.50
2022-08-03T08:04:56.633Z,3369.38
2022-08-03T08:05:56.617Z,3493.12
2022-08-03T08:06:56.600Z,3358.12
2022-08-03T08:07:56.603Z,3363.75
2022-08-03T08:08:56.601Z,3436.88
2022-08-03T08:09:56.584Z,3453.75
2022-08-03T08:10:57.876Z,3605.62
2022-08-03T08:11:56.561Z,3611.25
2022-08-03T08:12:56.543Z,3515.62
2022-08-03T08:13:56.542Z,3476.25
2022-08-03T08:14:56.540Z,3459.38
2022-08-03T08:15:56.524Z,3521.25
2022-08-03T08:16:56.510Z,3616.88
2022-08-03T08:17:56.503Z,3650.62
2022-08-03T08:18:56.483Z,3780.00
2022-08-03T08:19:56.504Z,3802.50
2022-08-03T08:20:56.466Z,3740.62
2022-08-03T08:22:02.303Z,3611.25
2022-08-03T08:22:57.444Z,3695.62
2022-08-03T08:23:57.835Z,3532.50
2022-08-03T08:24:56.426Z,3352.50
2022-08-03T08:25:56.443Z,3341.25
2022-08-03T08:26:56.415Z,3408.75
2022-08-03T08:28:31.034Z,3515.62
2022-08-03T08:28:57.393Z,3577.50
2022-08-03T08:30:00.568Z,3706.88
2022-08-03T08:30:57.386Z,3791.25
2022-08-03T08:31:56.368Z,3774.38
2022-08-03T08:32:56.357Z,3751.88
2022-08-03T08:34:04.769Z,3723.75
2022-08-03T08:34:57.339Z,3774.38
2022-08-03T08:35:56.318Z,3847.50
2022-08-03T08:36:56.369Z,3690.00
2022-08-03T08:37:56.308Z,3431.25
2022-08-03T08:38:56.299Z,3330.00
2022-08-03T08:39:56.289Z,3391.88
2022-08-03T08:40:56.281Z,3583.12
2022-08-03T08:41:56.261Z,3830.62
2022-08-03T08:42:58.871Z,3931.88
2022-08-03T08:43:59.957Z,3937.50
2022-08-03T08:44:56.239Z,3976.88
2022-08-03T08:45:56.232Z,3943.12
2022-08-03T08:46:56.232Z,3808.12
2022-08-03T08:48:00.827Z,3661.88
2022-08-03T08:48:57.274Z,3712.50
2022-08-03T08:50:09.365Z,3830.62
2022-08-03T08:50:57.182Z,4033.12
2022-08-03T08:52:00.884Z,3841.88
2022-08-03T08:52:57.160Z,3796.88
2022-08-03T08:53:56.175Z,3757.50
2022-08-03T08:54:56.146Z,3830.62
2022-08-03T08:55:57.904Z,3960.00
2022-08-03T08:56:56.122Z,3988.12
2022-08-03T08:57:56.105Z,4117.50
2022-08-03T08:58:56.103Z,4083.75
2022-08-03T08:59:57.375Z,3943.12
2022-08-03T09:00:56.094Z,3847.50
2022-08-03T09:01:56.065Z,3510.00
2022-08-03T09:02:56.066Z,3425.62
2022-08-03T09:03:56.045Z,3802.50
2022-08-03T09:04:56.047Z,3898.12
2022-08-03T09:05:56.479Z,3763.12
2022-08-03T09:07:18.771Z,3678.75
2022-08-03T09:07:57.006Z,3723.75
2022-08-03T09:08:56.009Z,3954.38
2022-08-03T09:10:11.239Z,4061.25
2022-08-03T09:10:57.008Z,4078.12
2022-08-03T09:12:09.011Z,4151.25
2022-08-03T09:12:57.390Z,4089.38
2022-08-03T09:13:55.958Z,4016.25
2022-08-03T09:15:15.869Z,4252.50
2022-08-03T09:16:00.775Z,4010.62
2022-08-03T09:16:55.950Z,3988.12
2022-08-03T09:17:55.912Z,4117.50
2022-08-03T09:18:55.919Z,3931.88
2022-08-03T09:20:03.540Z,4005.00
2022-08-03T09:20:56.890Z,3954.38
2022-08-03T09:21:55.881Z,3920.62
2022-08-03T09:22:55.891Z,3926.25
2022-08-03T09:24:01.436Z,3791.25
2022-08-03T09:25:21.664Z,3875.62
2022-08-03T09:25:56.842Z,3999.38
2022-08-03T09:26:55.832Z,4027.50
2022-08-03T09:27:55.851Z,3909.38
2022-08-03T09:29:02.581Z,4201.88
2022-08-03T09:29:56.803Z,4021.88
2022-08-03T09:30:55.801Z,3729.38
2022-08-03T09:31:55.802Z,3819.38
2022-08-03T09:32:55.784Z,4224.38
2022-08-03T09:33:55.792Z,4196.25
2022-08-03T09:34:58.199Z,4033.12
2022-08-03T09:35:57.771Z,4027.50
2022-08-03T09:36:55.979Z,4246.88
2022-08-03T09:38:12.251Z,4117.50
2022-08-03T09:38:56.745Z,3982.50
2022-08-03T09:39:55.714Z,4156.88
2022-08-03T09:40:59.559Z,4033.12
2022-08-03T09:41:55.694Z,3931.88
2022-08-03T09:42:55.685Z,4050.00
2022-08-03T09:43:55.674Z,4190.62
2022-08-03T09:45:02.733Z,4111.88
2022-08-03T09:45:55.655Z,4066.88
2022-08-03T09:46:55.665Z,4100.62
2022-08-03T09:47:55.645Z,4235.62
2022-08-03T09:48:55.654Z,4145.62
2022-08-03T09:49:55.639Z,3898.12
2022-08-03T09:50:58.421Z,3915.00
2022-08-03T09:52:33.144Z,2458.12
2022-08-03T09:52:56.587Z,630.00
2022-08-03T09:53:58.510Z,421.88
2022-08-03T09:54:55.568Z,405.00
2022-08-03T09:56:36.451Z,393.75
2022-08-03T09:56:56.549Z,376.88
2022-08-03T09:57:55.539Z,371.25
2022-08-03T09:58:55.529Z,360.00
2022-08-03T10:00:04.767Z,354.38
2022-08-03T10:00:56.573Z,354.38
2022-08-03T10:01:55.498Z,354.38
2022-08-03T10:02:55.490Z,348.75
2022-08-03T10:04:04.099Z,348.75
2022-08-03T10:04:56.469Z,348.75
2022-08-03T10:05:59.519Z,348.75
2022-08-03T10:06:55.477Z,343.12
2022-08-03T10:07:55.448Z,343.12
2022-08-03T10:08:55.438Z,343.12
2022-08-03T10:09:55.413Z,343.12
2022-08-03T10:10:55.420Z,343.12
2022-08-03T10:11:55.393Z,337.50
2022-08-03T10:12:55.420Z,337.50
2022-08-03T10:14:01.327Z,337.50
2022-08-03T10:14:56.383Z,337.50
2022-08-03T10:16:22.504Z,337.50
2022-08-03T10:16:56.347Z,337.50
2022-08-03T10:17:55.335Z,331.88
2022-08-03T10:18:55.346Z,331.88
2022-08-03T10:19:55.313Z,331.88
2022-08-03T10:20:55.306Z,331.88
2022-08-03T10:21:55.286Z,331.88
2022-08-03T10:22:55.284Z,331.88
2022-08-03T10:23:55.267Z,331.88
2022-08-03T10:24:55.277Z,331.88
2022-08-03T10:25:55.246Z,331.88
2022-08-03T10:26:55.237Z,326.25
2022-08-03T10:27:55.229Z,326.25
2022-08-03T10:28:55.216Z,326.25
2022-08-03T10:29:55.227Z,326.25
2022-08-03T10:30:55.274Z,326.25
2022-08-03T10:31:58.167Z,320.62
2022-08-03T10:32:55.170Z,320.62
2022-08-03T10:33:55.158Z,320.62
2022-08-03T10:34:59.934Z,320.62
2022-08-03T10:35:56.160Z,320.62
2022-08-03T10:36:55.150Z,320.62
2022-08-03T10:37:57.146Z,320.62
2022-08-03T10:38:55.130Z,315.00
2022-08-03T10:39:55.091Z,315.00
2022-08-03T10:40:58.933Z,315.00
2022-08-03T10:41:55.093Z,315.00
2022-08-03T10:42:55.062Z,315.00
2022-08-03T10:43:55.042Z,315.00
2022-08-03T10:44:55.033Z,315.00
2022-08-03T10:45:55.023Z,309.38
2022-08-03T10:46:55.023Z,309.38
2022-08-03T10:47:55.052Z,309.38
2022-08-03T10:48:55.051Z,309.38
2022-08-03T10:49:55.047Z,309.38
2022-08-03T10:50:54.974Z,309.38
2022-08-03T10:51:54.962Z,303.75
2022-08-03T10:52:54.954Z,303.75
2022-08-03T10:53:55.766Z,303.75
2022-08-03T10:54:54.935Z,303.75
2022-08-03T10:55:54.930Z,303.75
2022-08-03T10:56:54.905Z,303.75
2022-08-03T10:57:56.200Z,303.75
2022-08-03T10:58:57.602Z,303.75
2022-08-03T10:59:54.875Z,303.75
2022-08-03T11:00:54.966Z,309.38
2022-08-03T11:01:58.233Z,303.75
2022-08-03T11:02:54.838Z,303.75
2022-08-03T11:03:54.828Z,309.38
2022-08-03T11:04:55.310Z,315.00
2022-08-03T11:05:54.809Z,331.88
2022-08-03T11:06:54.802Z,337.50
2022-08-03T11:07:54.806Z,343.12
2022-08-03T11:08:54.789Z,343.12
2022-08-03T11:09:54.791Z,343.12
2022-08-03T11:10:54.778Z,337.50
2022-08-03T11:11:54.751Z,337.50
2022-08-03T11:12:54.746Z,337.50
2022-08-03T11:13:54.732Z,331.88
2022-08-03T11:14:54.719Z,331.88
2022-08-03T11:15:59.737Z,326.25
2022-08-03T11:16:55.691Z,326.25
2022-08-03T11:17:55.933Z,320.62
2022-08-03T11:18:54.671Z,320.62
2022-08-03T11:19:57.477Z,315.00
2022-08-03T11:20:54.665Z,320.62
2022-08-03T11:21:54.664Z,320.62
2022-08-03T11:22:54.690Z,320.62
2022-08-03T11:24:04.082Z,320.62
2022-08-03T11:24:55.612Z,320.62
2022-08-03T11:25:55.456Z,315.00
2022-08-03T11:26:54.583Z,309.38
2022-08-03T11:27:54.594Z,309.38
2022-08-03T11:28:54.564Z,309.38
2022-08-03T11:29:54.557Z,309.38
2022-08-03T11:30:54.558Z,309.38
2022-08-03T11:31:54.534Z,303.75
2022-08-03T11:32:54.566Z,303.75
2022-08-03T11:33:54.508Z,303.75
2022-08-03T11:34:54.499Z,303.75
2022-08-03T11:35:54.487Z,303.75
2022-08-03T11:36:54.486Z,303.75
2022-08-03T11:38:03.194Z,303.75
2022-08-03T11:38:55.503Z,303.75
2022-08-03T11:39:54.449Z,298.12
2022-08-03T11:40:54.445Z,298.12
2022-08-03T11:41:54.438Z,298.12
2022-08-03T11:42:54.420Z,298.12
2022-08-03T11:43:54.408Z,298.12
2022-08-03T11:44:54.423Z,298.12
2022-08-03T11:45:54.386Z,298.12
2022-08-03T11:46:54.379Z,298.12
2022-08-03T11:47:54.369Z,298.12
2022-08-03T11:48:54.427Z,303.75
2022-08-03T11:49:54.350Z,309.38
2022-08-03T11:50:54.390Z,315.00
2022-08-03T11:51:54.330Z,320.62
2022-08-03T11:52:54.321Z,326.25
2022-08-03T11:53:54.313Z,326.25
2022-08-03T11:54:57.213Z,320.62
2022-08-03T11:55:54.285Z,315.00
2022-08-03T11:56:54.292Z,309.38
2022-08-03T11:59:01.582Z,298.12
2022-08-03T11:59:10.876Z,303.75
2022-08-03T11:59:55.251Z,298.12
2022-08-03T12:00:54.233Z,292.50
2022-08-03T12:01:54.267Z,286.88
2022-08-03T12:02:54.231Z,292.50
2022-08-03T12:03:54.199Z,286.88
2022-08-03T12:04:54.195Z,286.88
2022-08-03T12:05:54.811Z,286.88
2022-08-03T12:06:54.179Z,286.88
2022-08-03T12:08:04.458Z,286.88
2022-08-03T12:08:56.046Z,286.88
2022-08-03T12:09:54.137Z,286.88
2022-08-03T12:10:54.149Z,286.88
2022-08-03T12:12:00.415Z,286.88
2022-08-03T12:12:55.137Z,286.88
2022-08-03T12:14:10.447Z,286.88
2022-08-03T12:14:55.098Z,286.88
2022-08-03T12:15:54.078Z,281.25
2022-08-03T12:16:54.082Z,281.25
2022-08-03T12:17:57.710Z,281.25
2022-08-03T12:18:54.069Z,281.25
2022-08-03T12:19:54.039Z,281.25
2022-08-03T12:20:54.039Z,275.62
2022-08-03T12:21:56.553Z,275.62
2022-08-03T12:22:54.011Z,275.62
2022-08-03T12:23:54.019Z,275.62
2022-08-03T12:24:53.990Z,275.62
2022-08-03T12:25:53.981Z,275.62
2022-08-03T12:26:59.439Z,275.62
2022-08-03T12:27:54.965Z,275.62
2022-08-03T12:28:53.972Z,275.62
2022-08-03T12:29:58.129Z,270.00
2022-08-03T12:30:55.072Z,270.00
2022-08-03T12:31:53.925Z,270.00
2022-08-03T12:32:53.913Z,270.00
2022-08-03T12:33:53.900Z,270.00
2022-08-03T12:34:53.892Z,270.00
2022-08-03T12:35:53.903Z,270.00
2022-08-03T12:36:53.890Z,270.00